Time;durP1;ratioP1;P1;durP2;ratioP2;P2;SDS_P1;SDS_P2;PMS_P1;PMS_P2;Temp;Humidity;BMP_temperature;BMP_pressure;BME280_temperature;BME280_humidity;BME280_pressure;Samples;Min_cycle;Max_cycle;Signal;HPM_P1;HPM_P2
2022/12/01 00:00:54;;;;;;;29.13;11.98;;;;;;;7.68;95.23;102073.53;5010944;28;20042;-67
2022/12/01 00:03:20;;;;;;;28.60;13.88;;;;;;;7.61;95.15;102072.31;4979184;28;20034;-67
2022/12/01 00:05:46;;;;;;;27.88;12.10;;;;;;;7.58;95.40;102072.94;4990051;28;20026;-67
2022/12/01 00:08:11;;;;;;;36.65;13.80;;;;;;;7.70;95.18;102073.22;5009492;28;20042;-67
2022/12/01 00:10:37;;;;;;;29.38;11.88;;;;;;;7.63;94.81;102075.50;4989821;28;20034;-67
2022/12/01 00:13:04;;;;;;;32.28;13.15;;;;;;;7.63;95.15;102075.50;5009870;28;20282;-67
2022/12/01 00:15:35;;;;;;;37.22;13.82;;;;;;;7.59;95.02;102069.94;5010124;28;20030;-67
2022/12/01 00:18:07;;;;;;;25.92;10.40;;;;;;;7.70;95.13;102068.66;5014746;22;20533;-67
2022/12/01 00:20:33;;;;;;;25.90;11.60;;;;;;;7.66;94.46;102072.22;4974271;28;20055;-68
2022/12/01 00:22:59;;;;;;;29.25;11.60;;;;;;;7.63;95.16;102065.56;4986274;28;20026;-66
2022/12/01 00:25:26;;;;;;;25.92;11.52;;;;;;;7.61;94.95;102064.28;5006188;28;20414;-67
2022/12/01 00:27:52;;;;;;;33.17;13.23;;;;;;;7.61;94.99;102064.28;4989910;28;20046;-66
2022/12/01 00:30:19;;;;;;;31.38;12.35;;;;;;;7.59;94.88;102059.22;5022223;28;20026;-67
2022/12/01 00:32:46;;;;;;;31.77;13.20;;;;;;;7.60;95.05;102052.78;5003917;28;20515;-67
2022/12/01 00:35:12;;;;;;;21.92;10.82;;;;;;;7.57;94.99;102057.94;4987809;28;20030;-67
2022/12/01 00:37:38;;;;;;;37.35;13.57;;;;;;;7.56;95.23;102057.16;5003509;28;20042;-67
2022/12/01 00:40:08;;;;;;;46.47;13.13;;;;;;;7.64;94.78;102056.44;4999667;28;20042;-67
2022/12/01 00:42:34;;;;;;;34.75;12.93;;;;;;;7.66;94.70;102058.81;4990632;28;20533;-67
2022/12/01 00:45:00;;;;;;;30.48;12.05;;;;;;;7.65;94.58;102062.59;4990955;28;20030;-67
2022/12/01 00:47:26;;;;;;;33.75;12.85;;;;;;;7.67;94.34;102060.41;4986443;28;20038;-67
2022/12/01 00:49:52;;;;;;;38.45;12.35;;;;;;;7.68;94.50;102062.81;5006879;28;20041;-67
2022/12/01 00:52:18;;;;;;;35.50;12.73;;;;;;;7.64;94.29;102069.06;4987709;28;20022;-68
2022/12/01 00:54:44;;;;;;;28.10;11.70;;;;;;;7.65;94.57;102059.91;4985367;28;20026;-67
2022/12/01 00:57:10;;;;;;;29.02;11.63;;;;;;;7.63;94.09;102065.56;4997326;28;20553;-67
2022/12/01 00:59:36;;;;;;;25.27;10.70;;;;;;;7.63;94.64;102064.78;4987511;28;20034;-67
2022/12/01 01:02:06;;;;;;;31.70;13.38;;;;;;;7.63;94.22;102072.81;4988976;28;20113;-67
2022/12/01 01:04:33;;;;;;;36.05;14.05;;;;;;;7.54;94.49;102066.56;4996657;28;20514;-67
2022/12/01 01:06:59;;;;;;;31.50;12.15;;;;;;;7.52;94.48;102074.91;4988884;28;20113;-68
2022/12/01 01:09:24;;;;;;;30.30;13.15;;;;;;;7.52;94.07;102077.59;4987703;28;20113;-67
2022/12/01 01:12:11;;;;;;;32.25;12.10;;;;;;;7.50;94.41;102082.47;4989615;28;20035;-67
2022/12/01 01:14:36;;;;;;;29.55;12.02;;;;;;;7.54;94.63;102088.00;4945169;29;20210;-67
2022/12/01 01:17:02;;;;;;;32.33;12.65;;;;;;;7.46;94.79;102088.72;4954954;28;20046;-67
2022/12/01 01:19:27;;;;;;;38.70;12.77;;;;;;;7.51;94.66;102089.41;4947246;28;20051;-67
2022/12/01 01:21:52;;;;;;;27.10;12.18;;;;;;;7.60;94.35;102086.81;4954653;28;20027;-67
2022/12/01 01:24:18;;;;;;;36.78;13.35;;;;;;;7.57;94.20;102088.22;4936882;29;20424;-67
2022/12/01 01:26:43;;;;;;;32.38;13.52;;;;;;;7.52;94.48;102096.38;4950368;29;20073;-67
2022/12/01 01:29:09;;;;;;;41.22;12.65;;;;;;;7.49;94.21;102090.81;4949468;28;20031;-67
2022/12/01 01:31:35;;;;;;;32.65;13.02;;;;;;;7.42;94.82;102098.44;4944984;29;20059;-66
2022/12/01 01:34:02;;;;;;;26.27;11.25;;;;;;;7.45;95.19;102089.81;4948636;28;20050;-68
2022/12/01 01:36:28;;;;;;;37.28;13.63;;;;;;;7.47;94.74;102096.44;4952697;28;20225;-66
2022/12/01 01:38:54;;;;;;;37.67;14.57;;;;;;;7.51;94.48;102102.81;4935546;29;20142;-66
2022/12/01 01:41:21;;;;;;;31.73;13.07;;;;;;;7.51;94.99;102094.00;4953070;29;20070;-66
2022/12/01 01:43:46;;;;;;;26.10;12.38;;;;;;;7.45;95.01;102095.97;4940755;29;20114;-66
2022/12/01 01:46:19;;;;;;;33.40;12.80;;;;;;;7.49;94.76;102099.63;4944881;29;20447;-66
2022/12/01 01:48:49;;;;;;;41.42;14.95;;;;;;;7.54;94.54;102104.91;4949779;28;20035;-67
2022/12/01 01:51:18;;;;;;;32.58;12.40;;;;;;;7.64;93.96;102098.53;4953165;28;20046;-66
2022/12/01 01:53:45;;;;;;;40.10;14.02;;;;;;;7.62;93.89;102095.38;4992921;28;20049;-66
2022/12/01 01:56:10;;;;;;;38.42;14.00;;;;;;;7.62;93.82;102101.53;4993195;28;20442;-66
2022/12/01 01:58:37;;;;;;;35.78;13.18;;;;;;;7.50;94.35;102095.88;4992698;28;20045;-66
2022/12/01 02:01:03;;;;;;;27.38;11.75;;;;;;;7.62;93.73;102104.22;4987242;28;20030;-66
2022/12/01 02:03:29;;;;;;;34.28;13.77;;;;;;;7.38;94.10;102098.22;4991866;28;20438;-66
2022/12/01 02:05:55;;;;;;;34.92;12.77;;;;;;;7.42;94.72;102099.22;4990623;28;20038;-66
2022/12/01 02:08:20;;;;;;;31.60;12.45;;;;;;;7.43;94.38;102098.16;4990088;28;20613;-66
2022/12/01 02:11:21;;;;;;;32.50;12.10;;;;;;;7.41;94.51;102097.66;4991110;28;20658;-67
2022/12/01 02:14:32;;;;;;;29.15;11.32;;;;;;;7.54;94.26;102096.84;5008413;28;20033;-66
2022/12/01 02:17:39;;;;;;;28.83;12.37;;;;;;;7.54;93.84;102096.84;4946272;29;20049;-67
2022/12/01 02:20:29;;;;;;;29.30;13.30;;;;;;;7.45;94.15;102100.53;4992561;28;20300;-66
2022/12/01 02:23:19;;;;;;;28.20;11.80;;;;;;;7.45;93.78;102101.34;4989096;28;20402;-67
2022/12/01 02:25:55;;;;;;;24.45;10.95;;;;;;;7.45;94.49;102109.38;4993177;28;20036;-66
2022/12/01 02:28:45;;;;;;;36.55;13.57;;;;;;;7.51;94.19;102099.34;4991652;28;20542;-66
2022/12/01 02:31:17;;;;;;;34.25;13.60;;;;;;;7.46;93.89;102099.44;4992300;28;20050;-66
2022/12/01 02:33:57;;;;;;;28.83;12.27;;;;;;;7.50;93.97;102106.59;4993088;28;20073;-66
2022/12/01 02:36:23;;;;;;;29.38;12.10;;;;;;;7.42;93.87;102106.47;4992375;28;20046;-66
2022/12/01 02:38:57;;;;;;;39.35;12.77;;;;;;;7.42;93.86;102101.09;4993862;28;20038;-66
2022/12/01 02:41:28;;;;;;;29.25;13.40;;;;;;;7.40;94.57;102109.47;4998156;28;20066;-66
2022/12/01 02:44:13;;;;;;;26.95;11.68;;;;;;;7.48;93.96;102102.59;4991765;28;20045;-66
2022/12/01 02:46:43;;;;;;;32.40;12.90;;;;;;;7.46;93.73;102100.22;4984221;28;20069;-66
2022/12/01 02:49:32;;;;;;;39.50;15.80;;;;;;;7.31;94.19;102097.84;4984513;28;20022;-66
2022/12/01 02:51:59;;;;;;;27.40;12.30;;;;;;;7.35;93.95;102098.84;4998441;28;20038;-66
2022/12/01 02:54:29;;;;;;;27.58;13.25;;;;;;;7.41;93.62;102094.19;4991677;28;20538;-67
2022/12/01 02:56:54;;;;;;;34.35;13.20;;;;;;;7.40;93.51;102084.53;4991613;28;20149;-67
2022/12/01 02:59:20;;;;;;;30.17;12.38;;;;;;;7.41;93.67;102094.19;4990220;28;20125;-67
2022/12/01 03:02:20;;;;;;;41.47;14.68;;;;;;;7.36;93.93;102097.75;5010084;28;20042;-66
2022/12/01 03:05:07;;;;;;;28.02;11.38;;;;;;;7.25;93.43;102094.47;4991207;28;20511;-66
2022/12/01 03:07:54;;;;;;;30.42;11.82;;;;;;;7.31;93.56;102097.84;4991244;28;20052;-67
2022/12/01 03:10:41;;;;;;;31.10;13.63;;;;;;;7.35;93.70;102096.16;4985351;28;20041;-66
2022/12/01 03:13:20;;;;;;;30.98;11.35;;;;;;;7.34;93.80;102094.56;4991992;28;20038;-66
2022/12/01 03:15:45;;;;;;;24.05;11.80;;;;;;;7.36;94.22;102113.00;4974808;28;20057;-66
2022/12/01 03:18:14;;;;;;;41.45;14.57;;;;;;;7.39;93.89;102102.53;4987827;28;20046;-66
2022/12/01 03:20:53;;;;;;;34.88;14.43;;;;;;;7.42;93.51;102101.09;4977117;28;20037;-66
2022/12/01 03:23:22;;;;;;;38.65;12.27;;;;;;;7.33;93.85;102103.72;5000413;28;20034;-66
2022/12/01 03:25:53;;;;;;;44.28;14.93;;;;;;;7.27;93.98;102092.28;4985873;28;20042;-66
2022/12/01 03:28:22;;;;;;;41.38;12.77;;;;;;;7.21;93.88;102100.72;4990859;28;20395;-66
2022/12/01 03:30:54;;;;;;;31.88;12.30;;;;;;;7.20;94.16;102094.53;4985384;28;20046;-66
2022/12/01 03:33:43;;;;;;;29.30;12.43;;;;;;;7.25;93.94;102093.66;4991610;28;20034;-66
2022/12/01 03:36:14;;;;;;;33.80;13.43;;;;;;;7.40;93.55;102095.25;4990520;28;20042;-66
2022/12/01 03:38:45;;;;;;;39.95;12.38;;;;;;;7.42;92.74;102099.22;4990657;28;20038;-67
2022/12/01 03:41:25;;;;;;;33.53;13.35;;;;;;;7.34;92.83;102096.47;4991877;28;20035;-66
2022/12/01 03:44:06;;;;;;;38.17;13.48;;;;;;;7.14;92.67;102101.09;5006637;28;20041;-66
2022/12/01 03:46:39;;;;;;;;;;;;;;;7.14;93.23;102090.38;4990042;28;20036;-67
2022/12/01 03:49:07;;;;;;;29.45;11.32;;;;;;;7.18;93.81;102090.59;4985353;28;19917;-67
2022/12/01 03:51:45;;;;;;;30.33;11.57;;;;;;;7.27;93.13;102096.84;5004913;28;20372;-67
2022/12/01 03:54:18;;;;;;;29.80;12.63;;;;;;;7.25;93.18;102089.13;4990671;28;20526;-66
2022/12/01 03:56:54;;;;;;;33.17;12.05;;;;;;;7.25;92.46;102093.66;5001202;28;20038;-66
2022/12/01 03:59:22;;;;;;;38.50;12.13;;;;;;;7.17;93.16;102092.47;4989521;28;20026;-67
2022/12/01 04:01:49;;;;;;;33.97;11.70;;;;;;;7.12;92.64;102089.09;5004601;28;20434;-66
2022/12/01 04:04:14;;;;;;;34.55;13.43;;;;;;;7.19;93.69;102098.34;4989963;28;20161;-66
2022/12/01 04:06:44;;;;;;;39.85;13.95;;;;;;;7.28;93.38;102095.75;4989602;28;20117;-66
2022/12/01 04:09:09;;;;;;;33.67;12.55;;;;;;;7.26;93.10;102096.03;4990485;28;20030;-66
2022/12/01 04:14:19;;;;;;;35.92;13.82;;;;;;;7.14;93.06;102106.44;4988298;28;20057;-66
2022/12/01 04:16:44;;;;;;;45.45;14.00;;;;;;;7.15;92.78;102105.38;4988630;28;20490;-66
2022/12/01 04:19:10;;;;;;;36.42;14.20;;;;;;;7.23;92.65;102102.00;4988531;28;20033;-66
2022/12/01 04:21:36;;;;;;;27.08;10.70;;;;;;;7.19;92.77;102102.88;4991196;28;20037;-67
2022/12/01 04:24:01;;;;;;;32.20;12.85;;;;;;;7.20;92.10;102105.25;5005093;28;20030;-67
2022/12/01 04:26:33;;;;;;;33.20;13.60;;;;;;;7.12;92.54;102100.59;4989022;28;20124;-66
2022/12/01 04:29:06;;;;;;;22.50;10.55;;;;;;;7.10;93.06;102100.09;4986644;28;20034;-66
2022/12/01 04:31:52;;;;;;;35.33;12.18;;;;;;;7.16;93.05;102109.63;4988660;28;20090;-66
2022/12/01 04:34:17;;;;;;;34.35;12.75;;;;;;;7.22;92.88;102105.75;4945769;29;20043;-66
2022/12/01 04:36:43;;;;;;;27.15;11.27;;;;;;;7.26;92.98;102098.72;4944745;29;20065;-67
2022/12/01 04:39:08;;;;;;;30.92;12.68;;;;;;;7.22;92.52;102104.97;4948600;28;20440;-65
2022/12/01 04:41:33;;;;;;;27.00;11.43;;;;;;;7.19;92.78;102103.69;4950034;29;20118;-66
2022/12/01 04:43:59;;;;;;;33.85;12.68;;;;;;;7.22;92.72;102100.41;4936383;29;20035;-67
2022/12/01 04:46:25;;;;;;;38.30;13.40;;;;;;;7.29;93.00;102105.38;4933214;29;20051;-66
2022/12/01 04:48:51;;;;;;;26.38;12.18;;;;;;;7.26;92.21;102096.03;4948200;28;20058;-66
2022/12/01 04:51:17;;;;;;;31.88;12.70;;;;;;;7.11;92.95;102092.84;4949628;28;20047;-66
2022/12/01 04:53:42;;;;;;;29.80;13.02;;;;;;;7.11;93.02;102101.69;4946726;29;20031;-66
2022/12/01 04:56:08;;;;;;;38.83;13.57;;;;;;;7.18;92.86;102093.28;4935556;29;20039;-66
2022/12/01 04:58:38;;;;;;;35.15;12.98;;;;;;;7.19;92.38;102097.53;4950926;28;20051;-66
2022/12/01 05:01:07;;;;;;;33.83;12.95;;;;;;;7.13;92.76;102106.75;4932094;29;20575;-67
2022/12/01 05:03:37;;;;;;;31.02;11.40;;;;;;;7.15;93.28;102107.25;4952266;29;20130;-66
2022/12/01 05:06:26;;;;;;;34.17;11.88;;;;;;;7.13;92.91;102104.88;4941248;29;20039;-66
2022/12/01 05:08:55;;;;;;;33.90;12.38;;;;;;;7.06;93.13;102109.03;4934774;29;20107;-66
2022/12/01 05:11:22;;;;;;;26.75;11.40;;;;;;;7.20;93.14;102107.16;4948830;28;20045;-66
2022/12/01 05:13:48;;;;;;;26.83;12.93;;;;;;;7.17;92.44;102105.88;4991234;28;20081;-66
2022/12/01 05:16:20;;;;;;;33.53;11.18;;;;;;;7.17;92.92;102105.88;4993185;28;20026;-67
2022/12/01 05:18:49;;;;;;;;;;;;;;;7.14;92.60;102103.00;4996075;28;20042;-67
2022/12/01 05:21:14;;;;;;;32.05;10.63;;;;;;;7.18;92.38;102112.03;4995222;28;19918;-66
2022/12/01 05:23:40;;;;;;;34.97;12.65;;;;;;;7.20;92.41;102117.88;4992636;28;20042;-66
2022/12/01 05:26:07;;;;;;;33.33;11.38;;;;;;;7.19;92.81;102121.63;4989808;28;20065;-66
2022/12/01 05:28:34;;;;;;;40.15;14.48;;;;;;;7.16;92.42;102120.34;4990562;28;20034;-66
2022/12/01 05:30:59;;;;;;;39.60;14.68;;;;;;;7.20;92.63;102123.25;5006932;28;20666;-66
2022/12/01 05:33:26;;;;;;;33.97;11.57;;;;;;;7.18;92.77;102131.56;4992503;28;20068;-67
2022/12/01 05:35:52;;;;;;;29.15;12.52;;;;;;;7.12;92.52;102119.34;4971320;28;20491;-66
2022/12/01 05:38:19;;;;;;;36.47;12.95;;;;;;;7.18;92.78;102126.19;4996354;28;20037;-66
2022/12/01 05:40:55;;;;;;;32.88;14.00;;;;;;;7.20;92.77;102124.00;4993647;28;20117;-66
2022/12/01 05:43:22;;;;;;;28.60;12.70;;;;;;;7.18;92.14;102130.78;4987265;28;20046;-66
2022/12/01 05:45:48;;;;;;;35.50;13.82;;;;;;;7.22;92.42;102132.56;5006819;28;20042;-66
2022/12/01 05:48:15;;;;;;;31.52;12.27;;;;;;;7.28;92.18;102128.69;5006988;28;20615;-66
2022/12/01 05:50:41;;;;;;;32.17;12.30;;;;;;;7.29;92.57;102124.94;4991647;28;20035;-66
2022/12/01 05:53:06;;;;;;;34.90;13.25;;;;;;;7.34;91.45;102120.59;4991437;28;20041;-67
2022/12/01 05:55:33;;;;;;;32.35;12.55;;;;;;;7.29;91.73;102126.81;5002646;28;20621;-66
2022/12/01 05:57:59;;;;;;;34.08;12.73;;;;;;;7.20;92.18;102117.88;4997287;28;20053;-66
2022/12/01 06:00:25;;;;;;;38.85;12.73;;;;;;;7.17;91.98;102129.97;4994365;28;20030;-66
2022/12/01 06:02:50;;;;;;;34.13;12.32;;;;;;;7.09;92.99;102135.19;4995525;28;20034;-66
2022/12/01 06:05:16;;;;;;;39.10;12.75;;;;;;;7.13;92.64;102134.31;4996316;28;20558;-66
2022/12/01 06:07:41;;;;;;;31.20;12.75;;;;;;;7.23;92.17;102133.34;4991257;28;20038;-67
2022/12/01 06:10:08;;;;;;;46.72;14.18;;;;;;;7.31;91.85;102138.03;4992322;28;20410;-66
2022/12/01 06:12:35;;;;;;;32.72;12.52;;;;;;;7.26;92.18;102130.88;4991136;28;20451;-66
2022/12/01 06:15:00;;;;;;;35.30;12.38;;;;;;;7.27;91.63;102137.84;4988040;28;20420;-67
2022/12/01 06:17:26;;;;;;;42.25;13.30;;;;;;;7.28;91.41;102134.06;4988862;28;20030;-66
2022/12/01 06:19:51;;;;;;;32.72;12.73;;;;;;;7.21;91.76;102141.69;4987518;28;20388;-67
2022/12/01 06:22:17;;;;;;;30.08;12.60;;;;;;;7.20;92.37;102139.31;4990150;28;20558;-67
2022/12/01 06:24:42;;;;;;;35.40;14.45;;;;;;;7.20;92.21;102153.47;4991376;28;20134;-67
2022/12/01 06:27:08;;;;;;;37.65;14.07;;;;;;;7.24;92.11;102138.41;4991275;28;20113;-67
2022/12/01 06:29:33;;;;;;;40.67;13.18;;;;;;;7.25;91.58;102139.22;4989677;28;20096;-67
2022/12/01 06:31:58;;;;;;;35.40;13.82;;;;;;;7.21;91.70;102151.59;4984365;28;20047;-67
2022/12/01 06:34:24;;;;;;;39.72;13.80;;;;;;;7.15;91.92;102150.91;4988514;28;20034;-68
2022/12/01 06:36:52;;;;;;;38.47;14.32;;;;;;;7.21;92.24;102152.41;4991846;28;20049;-67
2022/12/01 06:39:17;;;;;;;44.97;14.60;;;;;;;7.26;91.62;102152.31;4985612;28;20450;-67
2022/12/01 06:41:43;;;;;;;35.35;13.38;;;;;;;7.23;91.60;102160.94;4989373;28;20031;-67
2022/12/01 06:44:09;;;;;;;38.30;12.65;;;;;;;7.14;91.67;102162.69;4990056;28;20034;-67
2022/12/01 06:46:35;;;;;;;34.92;12.57;;;;;;;7.16;92.20;102162.41;4986854;28;20051;-67
2022/12/01 06:49:00;;;;;;;27.25;12.70;;;;;;;7.14;92.32;102168.06;4984825;28;20038;-68
2022/12/01 06:51:27;;;;;;;30.55;11.43;;;;;;;7.16;92.12;102163.19;4996087;28;20033;-68
2022/12/01 06:53:54;;;;;;;42.30;13.52;;;;;;;7.20;91.92;102166.09;4989207;28;20037;-68
2022/12/01 06:56:20;;;;;;;39.53;14.52;;;;;;;7.11;92.11;102165.97;4988129;28;20075;-68
2022/12/01 06:58:47;;;;;;;37.03;14.68;;;;;;;7.14;92.12;102172.63;5003035;28;20033;-68
2022/12/01 07:01:12;;;;;;;29.92;12.75;;;;;;;7.22;91.94;102171.94;4986243;28;22393;-67
2022/12/01 07:03:38;;;;;;;28.45;10.48;;;;;;;7.19;91.86;102178.69;4991436;28;20034;-68
2022/12/01 07:06:05;;;;;;;31.45;13.25;;;;;;;7.19;91.46;102181.38;4990275;28;20602;-68
2022/12/01 07:08:31;;;;;;;40.67;13.80;;;;;;;7.15;91.60;102179.56;4994880;28;20091;-68
2022/12/01 07:11:09;;;;;;;40.08;13.30;;;;;;;7.10;91.87;102187.69;4995090;28;20030;-68
2022/12/01 07:13:34;;;;;;;32.55;12.98;;;;;;;7.10;92.14;102193.81;5005887;28;20229;-68
2022/12/01 07:16:01;;;;;;;29.05;12.73;;;;;;;7.06;92.09;102184.00;4995106;28;20546;-68
2022/12/01 07:18:27;;;;;;;45.88;12.60;;;;;;;7.12;92.31;102191.66;4990783;28;20026;-68
2022/12/01 07:20:53;;;;;;;35.75;14.90;;;;;;;7.16;92.16;102187.31;4991076;28;20057;-67
2022/12/01 07:23:20;;;;;;;44.33;15.25;;;;;;;7.20;92.00;102184.84;4989568;28;20542;-67
2022/12/01 07:25:45;;;;;;;35.13;13.68;;;;;;;7.18;91.61;102187.03;4988119;28;20030;-66
2022/12/01 07:28:11;;;;;;;44.42;13.73;;;;;;;7.15;91.82;102193.75;4986407;28;20506;-67
2022/12/01 07:30:36;;;;;;;44.53;14.15;;;;;;;7.08;91.82;102187.97;4990419;28;20037;-67
2022/12/01 07:33:02;;;;;;;40.22;15.02;;;;;;;7.03;91.62;102195.28;4988296;28;20049;-67
2022/12/01 07:35:27;;;;;;;28.48;11.38;;;;;;;7.10;92.33;102185.78;4986874;28;20038;-67
2022/12/01 07:37:54;;;;;;;34.38;13.02;;;;;;;7.00;92.77;102196.69;4991754;28;20038;-67
2022/12/01 07:40:20;;;;;;;35.63;13.32;;;;;;;7.08;92.71;102190.66;4988818;28;20104;-67
2022/12/01 07:42:45;;;;;;;38.55;11.80;;;;;;;7.00;92.36;102190.53;4999860;28;20034;-68
2022/12/01 07:45:11;;;;;;;39.28;13.02;;;;;;;7.02;91.99;102183.81;4987256;28;20077;-67
2022/12/01 07:47:36;;;;;;;34.90;12.73;;;;;;;7.13;92.55;102189.78;4989024;28;20077;-67
2022/12/01 07:50:02;;;;;;;30.80;13.82;;;;;;;7.16;92.34;102189.97;5000775;28;20396;-68
2022/12/01 07:52:27;;;;;;;33.17;14.70;;;;;;;7.17;92.35;102186.22;4990264;28;20034;-67
2022/12/01 07:54:52;;;;;;;38.60;14.23;;;;;;;7.16;91.73;102192.66;4990268;28;20418;-68
2022/12/01 07:57:19;;;;;;;35.70;12.43;;;;;;;7.20;92.27;102196.34;4989177;28;20034;-67
2022/12/01 07:59:44;;;;;;;35.10;14.00;;;;;;;7.20;91.87;102195.56;4991591;28;20576;-67
2022/12/01 08:02:10;;;;;;;39.15;14.00;;;;;;;7.26;91.71;102194.38;5000456;28;20034;-67
2022/12/01 08:04:35;;;;;;;33.13;13.10;;;;;;;7.23;91.66;102190.41;4983518;28;20041;-67
2022/12/01 08:07:01;;;;;;;37.83;11.88;;;;;;;7.20;91.66;102201.69;5002405;28;20083;-67
2022/12/01 08:09:27;;;;;;;39.53;13.07;;;;;;;7.14;91.85;102205.53;5002651;28;20866;-67
2022/12/01 08:11:52;;;;;;;45.13;14.10;;;;;;;7.15;91.96;102204.47;4988464;28;20046;-68
2022/12/01 08:14:17;;;;;;;41.00;12.55;;;;;;;7.09;92.29;102200.28;5004351;28;20041;-67
2022/12/01 08:16:43;;;;;;;43.83;13.63;;;;;;;7.14;92.29;102202.88;4988758;28;20031;-69
2022/12/01 08:19:09;;;;;;;36.92;12.40;;;;;;;7.16;91.85;102206.06;5002844;28;20034;-67
2022/12/01 08:21:36;;;;;;;30.02;11.77;;;;;;;7.14;92.21;102207.44;4986900;28;20505;-67
2022/12/01 08:24:02;;;;;;;34.92;12.00;;;;;;;7.19;92.52;102205.47;4988873;28;20046;-67
2022/12/01 08:26:27;;;;;;;28.05;11.27;;;;;;;7.01;92.22;102202.81;4989230;28;20137;-68
2022/12/01 08:28:53;;;;;;;28.45;11.52;;;;;;;7.03;92.59;102206.81;4984267;28;20134;-67
2022/12/01 08:31:27;;;;;;;31.33;12.65;;;;;;;7.05;92.52;102207.31;4990291;28;20129;-68
2022/12/01 08:33:53;;;;;;;33.70;12.57;;;;;;;7.12;92.25;102210.41;4994729;28;20032;-67
2022/12/01 08:36:20;;;;;;;32.15;11.43;;;;;;;7.18;91.96;102213.81;4990104;28;20531;-67
2022/12/01 08:38:47;;;;;;;23.92;9.57;;;;;;;7.23;91.72;102211.03;4989111;28;20071;-67
2022/12/01 08:41:14;;;;;;;28.63;11.88;;;;;;;7.22;91.70;102220.97;4990316;28;20483;-67
2022/12/01 08:43:43;;;;;;;30.65;9.90;;;;;;;7.26;91.62;102213.94;4992327;28;20107;-67
2022/12/01 08:46:09;;;;;;;33.90;11.85;;;;;;;7.22;91.38;102210.25;4994893;28;20457;-67
2022/12/01 08:48:36;;;;;;;22.17;9.90;;;;;;;7.26;90.90;102221.16;4986748;28;20048;-67
2022/12/01 08:51:02;;;;;;;27.88;11.30;;;;;;;7.14;91.24;102221.63;4987972;28;20038;-67
2022/12/01 08:53:28;;;;;;;24.45;8.70;;;;;;;7.17;91.02;102221.06;5006449;28;20030;-67
2022/12/01 08:55:54;;;;;;;27.58;10.90;;;;;;;7.26;90.81;102215.81;4985617;28;20046;-67
2022/12/01 08:58:19;;;;;;;26.92;9.77;;;;;;;7.26;90.31;102216.59;4989554;28;20030;-67
2022/12/01 09:00:45;;;;;;;25.42;10.40;;;;;;;7.11;90.44;102216.88;4986645;28;20069;-67
2022/12/01 09:03:10;;;;;;;30.10;9.52;;;;;;;7.05;90.07;102215.34;4985241;28;20065;-67
2022/12/01 09:05:36;;;;;;;28.50;10.63;;;;;;;7.09;90.25;102220.91;4988981;28;20486;-68
2022/12/01 09:10:51;;;;;;;26.60;9.88;;;;;;;7.16;90.27;102224.81;4990030;28;20069;-67
2022/12/01 09:13:17;;;;;;;28.50;10.50;;;;;;;7.29;89.47;102234.78;5000323;28;20503;-67
2022/12/01 09:16:03;;;;;;;28.88;11.77;;;;;;;7.31;89.18;102226.44;4990432;28;20041;-67
2022/12/01 09:18:28;;;;;;;19.30;8.65;;;;;;;7.25;89.19;102227.63;4944627;28;20043;-67
2022/12/01 09:20:54;;;;;;;24.00;9.55;;;;;;;7.28;89.26;102227.81;4945668;28;20066;-67
2022/12/01 09:23:20;;;;;;;19.17;8.40;;;;;;;7.29;89.38;102226.75;4948347;28;20043;-67
2022/12/01 09:25:46;;;;;;;26.98;8.25;;;;;;;7.29;89.27;102237.47;4947387;28;20578;-68
2022/12/01 09:28:12;;;;;;;33.33;9.95;;;;;;;7.26;88.84;102235.34;4947388;28;20099;-67
2022/12/01 09:30:38;;;;;;;26.77;10.65;;;;;;;7.18;88.49;102238.69;4948549;28;20043;-68
2022/12/01 09:33:03;;;;;;;25.88;9.50;;;;;;;7.17;88.57;102239.81;4948146;28;20054;-68
2022/12/01 09:35:30;;;;;;;25.90;9.18;;;;;;;7.14;88.51;102235.00;4927417;29;20047;-68
2022/12/01 09:37:56;;;;;;;25.25;10.10;;;;;;;7.06;88.02;102241.06;4931188;28;20027;-68
2022/12/01 09:40:29;;;;;;;26.80;8.93;;;;;;;7.13;88.12;102244.16;4949353;28;20464;-67
2022/12/01 09:42:55;;;;;;;25.75;8.93;;;;;;;7.10;88.43;102244.72;4929483;29;20479;-68
2022/12/01 09:45:29;;;;;;;21.90;8.70;;;;;;;7.16;88.52;102246.22;4949241;28;20081;-68
2022/12/01 09:47:57;;;;;;;26.23;9.63;;;;;;;7.16;88.22;102242.78;4947147;28;20597;-68
2022/12/01 09:50:24;;;;;;;32.22;9.07;;;;;;;7.18;88.11;102237.94;4923249;29;20074;-68
2022/12/01 09:52:56;;;;;;;25.98;9.38;;;;;;;7.07;88.23;102234.59;4946419;28;20042;-68
2022/12/01 09:55:24;;;;;;;25.40;8.70;;;;;;;7.09;88.22;102232.44;4957491;28;20061;-67
2022/12/01 09:57:53;;;;;;;29.25;10.50;;;;;;;7.15;87.67;102236.63;4989526;28;20121;-68
2022/12/01 10:00:25;;;;;;;25.50;8.77;;;;;;;7.07;87.97;102244.50;4991612;28;20423;-67
2022/12/01 10:02:56;;;;;;;31.58;9.57;;;;;;;7.09;87.89;102235.09;4988419;28;20089;-67
2022/12/01 10:05:25;;;;;;;26.73;9.98;;;;;;;7.03;88.06;102238.94;4988478;28;20022;-67
2022/12/01 10:07:58;;;;;;;24.00;10.20;;;;;;;6.95;88.51;102231.56;4985498;28;20030;-68
2022/12/01 10:10:29;;;;;;;26.67;9.10;;;;;;;6.91;89.15;102235.13;4988643;28;20033;-68
2022/12/01 10:12:54;;;;;;;34.22;10.88;;;;;;;6.83;89.87;102233.88;4991521;28;20534;-68
2022/12/01 10:15:22;;;;;;;54.50;12.88;;;;;;;6.89;89.71;102223.91;4991476;28;20034;-67
2022/12/01 10:18:00;;;;;;;38.20;10.85;;;;;;;6.79;89.08;102227.53;4988039;28;20558;-68
2022/12/01 10:20:45;;;;;;;47.90;12.95;;;;;;;6.65;90.23;102218.63;4991620;28;20041;-67
2022/12/01 10:23:37;;;;;;;58.83;13.18;;;;;;;6.60;89.65;102225.94;4989927;28;20085;-68
2022/12/01 10:26:14;;;;;;;24.58;9.32;;;;;;;6.50;90.36;102215.38;5001113;28;20030;-68
2022/12/01 10:28:52;;;;;;;29.23;9.45;;;;;;;6.57;90.40;102211.25;4991211;28;20042;-67
2022/12/01 10:31:25;;;;;;;22.15;8.77;;;;;;;6.50;89.96;102215.38;5002983;28;20038;-67
2022/12/01 10:34:31;;;;;;;26.45;9.55;;;;;;;6.39;90.21;102212.03;4988257;28;20038;-68
2022/12/01 10:36:57;;;;;;;25.02;8.90;;;;;;;6.43;90.80;102220.31;5005057;28;20038;-68
2022/12/01 10:39:42;;;;;;;29.50;9.07;;;;;;;6.40;91.86;102216.31;4988096;28;20033;-68
2022/12/01 10:42:26;;;;;;;19.20;8.25;;;;;;;6.59;90.52;102222.47;4992519;28;20037;-68
2022/12/01 10:44:54;;;;;;;22.52;8.05;;;;;;;6.46;90.70;102215.16;4987870;28;20651;-67
2022/12/01 10:47:24;;;;;;;25.55;8.70;;;;;;;6.52;90.38;102222.03;4984651;28;20041;-68
2022/12/01 10:49:50;;;;;;;25.33;8.83;;;;;;;6.43;91.31;102215.72;4989712;28;20022;-67
2022/12/01 10:52:31;;;;;;;23.52;6.90;;;;;;;6.53;90.44;102220.94;4990818;28;20065;-68
2022/12/01 10:54:57;;;;;;;15.25;5.00;;;;;;;6.47;89.93;102210.59;4989028;28;20034;-68
2022/12/01 10:57:22;;;;;;;13.75;5.97;;;;;;;6.47;90.03;102213.25;4987081;28;20045;-68
2022/12/01 10:59:54;;;;;;;14.23;6.60;;;;;;;6.53;90.26;102222.81;4987835;28;20491;-68
2022/12/01 11:02:22;;;;;;;19.60;7.20;;;;;;;6.57;88.75;102213.13;5007419;28;20563;-68
2022/12/01 11:05:18;;;;;;;26.63;7.65;;;;;;;6.57;88.91;102210.44;4985319;28;20030;-68
2022/12/01 11:07:45;;;;;;;20.35;5.85;;;;;;;6.55;88.94;102199.25;4928212;29;20083;-68
2022/12/01 11:10:11;;;;;;;18.40;6.15;;;;;;;6.41;88.57;102201.06;4929542;29;20131;-68
2022/12/01 11:12:36;;;;;;;20.70;6.40;;;;;;;6.48;88.68;102204.97;4925566;29;20162;-66
2022/12/01 11:15:04;;;;;;;19.35;6.38;;;;;;;6.31;87.93;102200.09;4929006;29;20032;-68
2022/12/01 11:17:40;;;;;;;29.75;7.82;;;;;;;6.34;88.42;102209.44;4930034;29;20063;-67
2022/12/01 11:20:25;;;;;;;18.30;6.05;;;;;;;6.41;87.91;102204.50;4929498;29;20040;-68
2022/12/01 11:22:51;;;;;;;12.50;5.22;;;;;;;6.34;88.24;102204.88;4927722;29;20040;-67
2022/12/01 11:25:20;;;;;;;21.25;7.15;;;;;;;6.45;88.63;102204.72;4930640;29;20050;-67
2022/12/01 11:27:49;;;;;;;15.18;6.43;;;;;;;6.41;87.97;102211.75;4930800;29;20052;-67
2022/12/01 11:30:29;;;;;;;20.67;6.55;;;;;;;6.49;88.15;102211.91;4929955;29;20032;-66
2022/12/01 11:33:00;;;;;;;20.90;6.70;;;;;;;6.44;87.75;102211.19;4930144;29;20118;-67
2022/12/01 11:35:31;;;;;;;14.73;5.20;;;;;;;6.43;87.09;102206.91;4928007;29;20674;-67